Time;durP1;ratioP1;P1;durP2;ratioP2;P2;SDS_P1;SDS_P2;PMS_P1;PMS_P2;Temp;Humidity;BMP_temperature;BMP_pressure;BME280_temperature;BME280_humidity;BME280_pressure;Samples;Min_cycle;Max_cycle;Signal;HPM_P1;HPM_P2
2022/11/09 00:01:57;;;;;;;0.47;0.47;;;;;;;;;;1784421;80;26269;-56
2022/11/09 00:04:24;;;;;;;0.65;0.50;;;;;;;;;;1787841;80;26828;-55
2022/11/09 00:06:52;;;;;;;0.50;0.50;;;;;;;;;;1788845;80;26371;-57
2022/11/09 00:09:19;;;;;;;0.50;0.50;;;;;;;;;;1788961;80;26289;-57
2022/11/09 00:11:47;;;;;;;0.40;0.40;;;;;;;;;;1788757;80;26297;-58
2022/11/09 00:14:14;;;;;;;0.50;0.50;;;;;;;;;;1788934;80;26606;-56
2022/11/09 00:16:42;;;;;;;2.60;0.60;;;;;;;;;;1788582;80;26547;-56
2022/11/09 00:19:09;;;;;;;0.60;0.60;;;;;;;;;;1788881;80;26297;-56
2022/11/09 00:21:36;;;;;;;0.60;0.60;;;;;;;;;;1785126;80;26604;-57
2022/11/09 00:24:03;;;;;;;0.60;0.60;;;;;;;;;;1788315;79;26282;-56
2022/11/09 00:26:31;;;;;;;0.65;0.65;;;;;;;;;;1778933;80;26298;-56
2022/11/09 00:28:58;;;;;;;0.60;0.60;;;;;;;;;;1789284;80;26754;-54
2022/11/09 00:31:26;;;;;;;1.32;0.60;;;;;;;;;;1788898;80;26380;-55
2022/11/09 00:33:55;;;;;;;0.60;0.60;;;;;;;;;;1823015;77;26307;-55
2022/11/09 00:36:23;;;;;;;0.98;0.70;;;;;;;;;;1818359;78;26814;-53
2022/11/09 00:38:54;;;;;;;0.62;0.50;;;;;;;;;;1813207;79;26241;-56
2022/11/09 00:41:22;;;;;;;1.07;0.60;;;;;;;;;;1819018;77;26221;-55
2022/11/09 00:43:49;;;;;;;0.50;0.50;;;;;;;;;;1818792;77;26830;-54
2022/11/09 00:46:18;;;;;;;0.50;0.50;;;;;;;;;;1814580;77;26260;-56
2022/11/09 00:48:46;;;;;;;0.57;0.57;;;;;;;;;;1792027;79;26282;-55
2022/11/09 00:51:13;;;;;;;0.53;0.53;;;;;;;;;;1826781;77;27448;-55
2022/11/09 00:53:41;;;;;;;0.50;0.50;;;;;;;;;;1828860;77;26319;-55
2022/11/09 00:56:12;;;;;;;0.70;0.70;;;;;;;;;;1811706;79;26193;-55
2022/11/09 00:58:40;;;;;;;0.53;0.53;;;;;;;;;;1818464;77;26752;-52
2022/11/09 01:01:09;;;;;;;0.57;0.57;;;;;;;;;;1789380;79;26235;-55
2022/11/09 01:03:37;;;;;;;0.50;0.50;;;;;;;;;;1818710;79;26229;-56
2022/11/09 01:06:05;;;;;;;0.60;0.60;;;;;;;;;;1818753;77;26714;-55
2022/11/09 01:08:32;;;;;;;0.82;0.50;;;;;;;;;;1818895;77;26245;-54
2022/11/09 01:11:01;;;;;;;0.55;0.55;;;;;;;;;;1818039;77;26359;-53
2022/11/09 01:13:28;;;;;;;0.70;0.70;;;;;;;;;;1815070;79;26260;-55
2022/11/09 01:15:56;;;;;;;0.50;0.50;;;;;;;;;;1817696;77;26752;-55
2022/11/09 01:18:23;;;;;;;0.50;0.50;;;;;;;;;;1796472;79;26713;-57
2022/11/09 01:20:50;;;;;;;0.55;0.55;;;;;;;;;;1822100;77;26229;-53
2022/11/09 01:23:19;;;;;;;0.50;0.50;;;;;;;;;;1783501;79;26392;-56
2022/11/09 01:25:46;;;;;;;0.60;0.60;;;;;;;;;;1786026;79;26301;-55
2022/11/09 01:28:13;;;;;;;0.50;0.50;;;;;;;;;;1786403;79;26333;-55
2022/11/09 01:30:42;;;;;;;0.60;0.60;;;;;;;;;;1782157;80;26301;-55
2022/11/09 01:33:10;;;;;;;0.60;0.60;;;;;;;;;;1824326;77;26332;-54
2022/11/09 01:35:39;;;;;;;0.68;0.68;;;;;;;;;;1790462;79;26616;-56
2022/11/09 01:38:07;;;;;;;0.53;0.53;;;;;;;;;;1817440;78;26205;-53
2022/11/09 01:40:35;;;;;;;0.68;0.68;;;;;;;;;;1818802;77;26706;-54
2022/11/09 01:43:06;;;;;;;0.60;0.60;;;;;;;;;;1801190;79;26270;-53
2022/11/09 01:45:34;;;;;;;0.50;0.50;;;;;;;;;;1803427;78;26331;-55
2022/11/09 01:48:02;;;;;;;0.60;0.60;;;;;;;;;;1806561;79;26690;-56
2022/11/09 01:50:34;;;;;;;0.62;0.62;;;;;;;;;;1752794;79;26791;-55
2022/11/09 01:53:03;;;;;;;3.22;0.70;;;;;;;;;;1784190;79;26275;-56
2022/11/09 01:55:30;;;;;;;0.82;0.72;;;;;;;;;;1807412;79;26832;-55
2022/11/09 01:57:59;;;;;;;0.65;0.65;;;;;;;;;;1792150;78;26280;-55
2022/11/09 02:00:27;;;;;;;0.68;0.68;;;;;;;;;;1807349;79;26206;-53
2022/11/09 02:02:58;;;;;;;0.50;0.50;;;;;;;;;;1807369;78;26681;-55
2022/11/09 02:05:27;;;;;;;0.60;0.60;;;;;;;;;;1806449;78;26273;-54
2022/11/09 02:07:56;;;;;;;0.55;0.55;;;;;;;;;;1807671;79;26233;-54
2022/11/09 02:10:25;;;;;;;0.70;0.70;;;;;;;;;;1807659;79;26295;-54
2022/11/09 02:12:53;;;;;;;0.72;0.72;;;;;;;;;;1807299;78;26294;-50
2022/11/09 02:15:21;;;;;;;1.15;0.70;;;;;;;;;;1807574;78;26272;-55
2022/11/09 02:17:50;;;;;;;0.47;0.47;;;;;;;;;;1807539;78;26566;-56
2022/11/09 02:20:17;;;;;;;0.50;0.50;;;;;;;;;;1803197;79;26269;-55
2022/11/09 02:22:45;;;;;;;0.62;0.62;;;;;;;;;;1807720;78;26249;-56
2022/11/09 02:25:13;;;;;;;0.62;0.62;;;;;;;;;;1814382;78;26308;-55
2022/11/09 02:27:42;;;;;;;0.50;0.50;;;;;;;;;;1816783;78;26241;-55
2022/11/09 02:30:10;;;;;;;0.50;0.50;;;;;;;;;;1803709;79;26241;-53
2022/11/09 02:32:38;;;;;;;0.50;0.50;;;;;;;;;;1807264;78;26308;-56
2022/11/09 02:35:05;;;;;;;0.62;0.62;;;;;;;;;;1807682;78;26266;-55
2022/11/09 02:37:37;;;;;;;0.60;0.60;;;;;;;;;;1806014;79;26350;-54
2022/11/09 02:40:06;;;;;;;0.57;0.57;;;;;;;;;;1807640;79;26257;-57
2022/11/09 02:42:33;;;;;;;0.60;0.60;;;;;;;;;;1807192;78;26271;-54
2022/11/09 02:45:00;;;;;;;0.62;0.62;;;;;;;;;;1806360;79;26355;-52
2022/11/09 02:47:28;;;;;;;0.70;0.70;;;;;;;;;;1802931;79;26259;-53
2022/11/09 02:49:56;;;;;;;0.62;0.62;;;;;;;;;;1810490;78;26257;-53
2022/11/09 02:52:24;;;;;;;0.50;0.50;;;;;;;;;;1810303;78;26403;-54
2022/11/09 02:54:51;;;;;;;0.62;0.50;;;;;;;;;;1805719;78;26361;-54
2022/11/09 02:57:19;;;;;;;0.70;0.70;;;;;;;;;;1806424;78;26742;-55
2022/11/09 02:59:46;;;;;;;0.50;0.50;;;;;;;;;;1805727;78;26339;-57
2022/11/09 03:02:13;;;;;;;0.60;0.50;;;;;;;;;;1806768;78;26249;-55
2022/11/09 03:04:40;;;;;;;0.62;0.62;;;;;;;;;;1806583;78;26303;-57
2022/11/09 03:07:08;;;;;;;0.70;0.70;;;;;;;;;;1796741;78;26241;-55
2022/11/09 03:09:35;;;;;;;0.60;0.60;;;;;;;;;;1806716;78;26245;-58
2022/11/09 03:12:27;;;;;;;0.78;0.78;;;;;;;;;;1803397;78;26720;-56
2022/11/09 03:14:32;;;;;;;0.60;0.60;;;;;;;;;;1792870;79;26331;-55
2022/11/09 03:16:59;;;;;;;0.50;0.50;;;;;;;;;;1806974;78;26327;-57
2022/11/09 03:19:26;;;;;;;0.70;0.70;;;;;;;;;;1806683;78;26729;-56
2022/11/09 03:21:54;;;;;;;0.70;0.70;;;;;;;;;;1781006;78;26821;-57
2022/11/09 03:24:21;;;;;;;0.60;0.60;;;;;;;;;;1803298;78;26300;-56
2022/11/09 03:26:48;;;;;;;0.55;0.55;;;;;;;;;;1823661;78;26246;-53
2022/11/09 03:29:15;;;;;;;0.50;0.50;;;;;;;;;;1802848;79;26241;-55
2022/11/09 03:31:43;;;;;;;0.60;0.60;;;;;;;;;;1805614;78;26366;-56
2022/11/09 03:34:10;;;;;;;0.60;0.60;;;;;;;;;;1806857;79;26245;-56
2022/11/09 03:36:37;;;;;;;0.60;0.60;;;;;;;;;;1806394;79;26714;-55
2022/11/09 03:39:04;;;;;;;0.60;0.60;;;;;;;;;;1813656;78;26789;-57
2022/11/09 03:41:32;;;;;;;2.55;0.72;;;;;;;;;;1806775;78;26756;-55
2022/11/09 03:43:59;;;;;;;0.70;0.70;;;;;;;;;;1805761;78;27111;-56
2022/11/09 03:46:26;;;;;;;0.62;0.62;;;;;;;;;;1813534;77;26289;-55
2022/11/09 03:48:54;;;;;;;0.80;0.80;;;;;;;;;;1814974;79;26292;-56
2022/11/09 03:51:22;;;;;;;0.95;0.60;;;;;;;;;;1815180;77;27404;-56
2022/11/09 03:53:49;;;;;;;0.70;0.70;;;;;;;;;;1816709;77;27130;-57
2022/11/09 03:56:18;;;;;;;0.70;0.70;;;;;;;;;;1815061;77;26256;-56
2022/11/09 03:58:45;;;;;;;1.40;0.70;;;;;;;;;;1815706;77;27326;-56
2022/11/09 04:01:13;;;;;;;0.70;0.70;;;;;;;;;;1815301;77;26306;-55
2022/11/09 04:03:41;;;;;;;0.80;0.80;;;;;;;;;;1813639;77;26330;-55
2022/11/09 04:06:08;;;;;;;0.70;0.68;;;;;;;;;;1814602;77;26322;-54
2022/11/09 04:08:35;;;;;;;0.88;0.88;;;;;;;;;;1815132;77;26252;-55
2022/11/09 04:11:03;;;;;;;0.82;0.60;;;;;;;;;;1815266;77;26253;-55
2022/11/09 04:13:30;;;;;;;0.65;0.65;;;;;;;;;;1811297;79;26311;-56
2022/11/09 04:15:57;;;;;;;0.60;0.60;;;;;;;;;;1814169;77;26255;-54
2022/11/09 04:18:24;;;;;;;0.70;0.70;;;;;;;;;;1814200;77;26941;-57
2022/11/09 04:20:52;;;;;;;0.70;0.70;;;;;;;;;;1812301;77;26321;-55
2022/11/09 04:23:19;;;;;;;0.60;0.60;;;;;;;;;;1811975;77;26717;-57
2022/11/09 04:25:46;;;;;;;0.60;0.60;;;;;;;;;;1815196;77;26256;-57
2022/11/09 04:28:14;;;;;;;0.60;0.60;;;;;;;;;;1814727;77;26277;-57
2022/11/09 04:30:42;;;;;;;0.60;0.60;;;;;;;;;;1814721;79;26335;-57
2022/11/09 04:33:09;;;;;;;0.60;0.60;;;;;;;;;;1814891;77;26710;-57
2022/11/09 04:35:37;;;;;;;1.55;0.68;;;;;;;;;;1814684;79;26252;-56
2022/11/09 04:38:06;;;;;;;0.65;0.65;;;;;;;;;;1813016;77;26582;-57
2022/11/09 04:40:34;;;;;;;0.70;0.70;;;;;;;;;;1814719;77;26261;-57
2022/11/09 04:43:03;;;;;;;0.60;0.60;;;;;;;;;;1814040;77;27416;-57
2022/11/09 04:45:32;;;;;;;0.68;0.68;;;;;;;;;;1813920;77;26324;-56
2022/11/09 04:48:02;;;;;;;2.12;0.82;;;;;;;;;;1811794;77;26269;-59
2022/11/09 04:50:30;;;;;;;0.80;0.80;;;;;;;;;;1813881;77;26340;-58
2022/11/09 04:53:14;;;;;;;0.93;0.70;;;;;;;;;;1813156;77;26681;-57
2022/11/09 04:55:42;;;;;;;1.07;1.00;;;;;;;;;;1814043;77;26351;-57
2022/11/09 04:58:09;;;;;;;0.70;0.70;;;;;;;;;;1814729;78;26304;-57
2022/11/09 05:00:37;;;;;;;0.70;0.70;;;;;;;;;;1812382;77;26839;-56
2022/11/09 05:03:05;;;;;;;3.50;0.80;;;;;;;;;;1816011;77;26257;-58
2022/11/09 05:05:33;;;;;;;1.62;0.70;;;;;;;;;;1815030;78;26233;-57
2022/11/09 05:08:00;;;;;;;0.60;0.60;;;;;;;;;;1814976;79;26311;-57
2022/11/09 05:10:28;;;;;;;1.02;0.70;;;;;;;;;;1816527;77;26369;-57
2022/11/09 05:12:59;;;;;;;0.70;0.70;;;;;;;;;;1814865;79;26272;-57
2022/11/09 05:15:26;;;;;;;2.75;0.70;;;;;;;;;;1814435;79;26292;-55
2022/11/09 05:17:54;;;;;;;0.80;0.80;;;;;;;;;;1813772;77;26290;-57
2022/11/09 05:20:21;;;;;;;0.70;0.70;;;;;;;;;;1814523;77;26726;-56
2022/11/09 05:25:34;;;;;;;0.88;0.88;;;;;;;;;;1813950;79;26296;-58
2022/11/09 05:28:02;;;;;;;0.95;0.80;;;;;;;;;;1814544;77;27472;-57
2022/11/09 05:30:29;;;;;;;0.70;0.70;;;;;;;;;;1814382;79;26709;-56
2022/11/09 05:32:56;;;;;;;0.70;0.68;;;;;;;;;;1811828;77;26264;-57
2022/11/09 05:35:24;;;;;;;0.70;0.70;;;;;;;;;;1815306;79;26863;-57
2022/11/09 05:37:51;;;;;;;0.57;0.57;;;;;;;;;;1814988;79;26402;-54
2022/11/09 05:40:19;;;;;;;0.72;0.70;;;;;;;;;;1814510;79;26244;-57
2022/11/09 05:42:47;;;;;;;0.85;0.57;;;;;;;;;;1813855;79;26733;-57
2022/11/09 05:45:15;;;;;;;0.60;0.60;;;;;;;;;;1810871;77;26233;-56
2022/11/09 05:47:43;;;;;;;0.98;0.60;;;;;;;;;;1810537;79;26280;-57
2022/11/09 05:50:12;;;;;;;0.70;0.70;;;;;;;;;;1814248;77;26264;-57
2022/11/09 05:52:39;;;;;;;0.60;0.60;;;;;;;;;;1813816;79;26268;-57
2022/11/09 05:55:07;;;;;;;0.65;0.65;;;;;;;;;;1814167;77;26339;-56
2022/11/09 05:57:34;;;;;;;0.68;0.68;;;;;;;;;;1814582;79;26385;-56
2022/11/09 06:00:02;;;;;;;0.80;0.80;;;;;;;;;;1810891;79;26272;-55
2022/11/09 06:02:32;;;;;;;0.78;0.78;;;;;;;;;;1813672;77;26240;-56
2022/11/09 06:04:59;;;;;;;0.60;0.60;;;;;;;;;;1815025;79;26253;-54
2022/11/09 06:07:26;;;;;;;0.80;0.80;;;;;;;;;;1809401;77;26303;-55
2022/11/09 06:09:54;;;;;;;1.15;0.65;;;;;;;;;;1813851;77;26310;-56
2022/11/09 06:12:21;;;;;;;1.10;0.57;;;;;;;;;;1814800;77;26272;-57
2022/11/09 06:14:48;;;;;;;0.70;0.70;;;;;;;;;;1818163;78;26741;-57
2022/11/09 06:17:16;;;;;;;0.60;0.60;;;;;;;;;;1808676;77;26295;-55
2022/11/09 06:19:43;;;;;;;0.60;0.60;;;;;;;;;;1822793;77;26330;-57
2022/11/09 06:22:11;;;;;;;1.77;0.50;;;;;;;;;;1820700;77;26677;-54
2022/11/09 06:24:38;;;;;;;0.60;0.60;;;;;;;;;;1830881;77;26246;-56
2022/11/09 06:27:06;;;;;;;0.50;0.50;;;;;;;;;;1814243;77;26409;-56
2022/11/09 06:29:33;;;;;;;0.62;0.62;;;;;;;;;;1817052;77;26620;-57
2022/11/09 06:32:00;;;;;;;0.68;0.68;;;;;;;;;;1813492;77;26277;-57
2022/11/09 06:34:29;;;;;;;0.70;0.70;;;;;;;;;;1813097;78;26737;-57
2022/11/09 06:36:56;;;;;;;0.70;0.70;;;;;;;;;;1815552;77;26380;-56
2022/11/09 06:39:23;;;;;;;0.60;0.60;;;;;;;;;;1809237;77;26843;-57
2022/11/09 06:41:51;;;;;;;0.68;0.68;;;;;;;;;;1812728;77;26408;-53
2022/11/09 06:44:18;;;;;;;0.62;0.60;;;;;;;;;;1795342;79;26348;-55
2022/11/09 06:46:45;;;;;;;0.88;0.68;;;;;;;;;;1795141;78;26306;-53
2022/11/09 06:49:13;;;;;;;1.52;0.60;;;;;;;;;;1801910;78;26265;-56
2022/11/09 06:51:40;;;;;;;1.55;0.60;;;;;;;;;;1840649;77;26342;-55
2022/11/09 06:54:07;;;;;;;0.50;0.50;;;;;;;;;;1798291;78;26242;-58
2022/11/09 06:56:35;;;;;;;1.22;0.70;;;;;;;;;;1797107;78;26648;-58
2022/11/09 06:59:02;;;;;;;0.65;0.65;;;;;;;;;;1839899;76;26301;-58
2022/11/09 07:01:29;;;;;;;0.80;0.80;;;;;;;;;;1837698;76;27000;-55
2022/11/09 07:03:57;;;;;;;0.70;0.70;;;;;;;;;;1839626;76;26249;-58
2022/11/09 07:06:24;;;;;;;0.70;0.70;;;;;;;;;;1838215;76;26275;-55
2022/11/09 07:08:53;;;;;;;0.70;0.70;;;;;;;;;;1832930;76;26236;-57
2022/11/09 07:11:20;;;;;;;0.62;0.62;;;;;;;;;;1837245;76;26258;-57
2022/11/09 07:13:48;;;;;;;2.47;0.90;;;;;;;;;;1840469;76;26310;-54
2022/11/09 07:16:16;;;;;;;0.78;0.78;;;;;;;;;;1841041;78;26321;-52
2022/11/09 07:18:44;;;;;;;0.80;0.80;;;;;;;;;;1837380;78;26276;-53
2022/11/09 07:21:12;;;;;;;0.65;0.60;;;;;;;;;;1840556;76;26279;-51
2022/11/09 07:23:39;;;;;;;1.60;0.80;;;;;;;;;;1839897;76;26280;-53
2022/11/09 07:26:07;;;;;;;1.00;0.65;;;;;;;;;;1840512;78;26854;-54
2022/11/09 07:28:34;;;;;;;0.80;0.75;;;;;;;;;;1849006;76;26237;-57
2022/11/09 07:31:02;;;;;;;1.65;0.60;;;;;;;;;;1841528;76;27399;-59
2022/11/09 07:33:31;;;;;;;0.80;0.80;;;;;;;;;;1839349;76;26764;-58
2022/11/09 07:35:59;;;;;;;0.70;0.70;;;;;;;;;;1841055;77;27433;-52
2022/11/09 07:38:27;;;;;;;1.47;0.80;;;;;;;;;;1852439;76;28142;-60
2022/11/09 07:41:12;;;;;;;;;;;;;;;;;;;;;
2022/11/09 07:43:39;;;;;;;1.00;0.88;;;;;;;;;;1842420;76;26308;-60
2022/11/09 07:46:06;;;;;;;0.80;0.80;;;;;;;;;;1852274;76;26754;-62
2022/11/09 07:48:34;;;;;;;0.70;0.68;;;;;;;;;;1825124;76;27355;-60
2022/11/09 07:51:01;;;;;;;0.80;0.80;;;;;;;;;;1838306;76;26781;-60
2022/11/09 07:53:29;;;;;;;0.75;0.75;;;;;;;;;;1843976;76;26371;-59
2022/11/09 07:56:01;;;;;;;0.70;0.70;;;;;;;;;;1836108;76;27446;-60
2022/11/09 07:58:28;;;;;;;1.30;0.80;;;;;;;;;;1828377;76;26342;-63
2022/11/09 08:00:55;;;;;;;1.37;0.60;;;;;;;;;;1825655;76;27135;-59
2022/11/09 08:03:23;;;;;;;0.80;0.80;;;;;;;;;;1829339;76;26300;-57
2022/11/09 08:05:51;;;;;;;0.70;0.70;;;;;;;;;;1832306;76;26789;-58
2022/11/09 08:08:18;;;;;;;0.82;0.70;;;;;;;;;;1835619;76;26274;-60
2022/11/09 08:10:50;;;;;;;0.95;0.90;;;;;;;;;;1824533;76;28907;-59
2022/11/09 08:13:14;;;;;;;0.70;0.70;;;;;;;;;;1811256;76;28358;-57
2022/11/09 08:15:42;;;;;;;0.80;0.80;;;;;;;;;;1827507;76;26650;-57
2022/11/09 08:18:11;;;;;;;0.60;0.60;;;;;;;;;;1837688;76;26292;-57
2022/11/09 08:20:38;;;;;;;0.72;0.72;;;;;;;;;;1829790;76;26272;-58
2022/11/09 08:23:06;;;;;;;0.82;0.82;;;;;;;;;;1825266;76;26280;-56
2022/11/09 08:25:34;;;;;;;0.72;0.72;;;;;;;;;;1854504;73;26401;-58
2022/11/09 08:28:02;;;;;;;0.70;0.70;;;;;;;;;;1847477;76;26253;-56
2022/11/09 08:30:30;;;;;;;0.70;0.70;;;;;;;;;;1848257;76;26277;-58
2022/11/09 08:32:58;;;;;;;0.70;0.70;;;;;;;;;;1838801;77;28629;-53
2022/11/09 08:35:25;;;;;;;0.80;0.80;;;;;;;;;;1844727;77;26292;-56
2022/11/09 08:37:53;;;;;;;0.88;0.80;;;;;;;;;;1849382;76;26338;-55
2022/11/09 08:40:22;;;;;;;0.93;0.93;;;;;;;;;;1846856;76;26603;-57
2022/11/09 08:42:49;;;;;;;0.70;0.70;;;;;;;;;;1844832;76;26300;-54
2022/11/09 08:45:17;;;;;;;1.05;0.80;;;;;;;;;;1847162;76;26342;-56
2022/11/09 08:47:45;;;;;;;0.80;0.80;;;;;;;;;;1845095;76;26662;-53
2022/11/09 08:50:13;;;;;;;0.70;0.70;;;;;;;;;;1846000;76;26250;-57
2022/11/09 08:52:40;;;;;;;0.70;0.70;;;;;;;;;;1846062;76;26327;-55
2022/11/09 08:55:08;;;;;;;0.70;0.70;;;;;;;;;;1847363;76;26325;-57
2022/11/09 08:57:35;;;;;;;0.80;0.80;;;;;;;;;;1847354;76;26783;-58
2022/11/09 09:00:03;;;;;;;0.70;0.70;;;;;;;;;;1849729;76;27122;-58
2022/11/09 09:02:31;;;;;;;0.75;0.75;;;;;;;;;;1848588;76;26879;-56
2022/11/09 09:04:58;;;;;;;0.78;0.78;;;;;;;;;;1848630;76;26984;-58
2022/11/09 09:07:25;;;;;;;0.70;0.70;;;;;;;;;;1844606;76;26792;-57
2022/11/09 09:09:53;;;;;;;0.60;0.60;;;;;;;;;;1847358;76;26244;-56
2022/11/09 09:12:20;;;;;;;0.70;0.70;;;;;;;;;;1847047;76;26300;-58
2022/11/09 09:14:47;;;;;;;0.70;0.70;;;;;;;;;;1847580;76;26923;-53
2022/11/09 09:17:15;;;;;;;1.95;0.70;;;;;;;;;;1847018;76;26686;-50
2022/11/09 09:19:42;;;;;;;0.80;0.80;;;;;;;;;;1847003;76;26222;-53
2022/11/09 09:22:09;;;;;;;0.60;0.60;;;;;;;;;;1848269;76;26264;-53
2022/11/09 09:24:36;;;;;;;0.60;0.60;;;;;;;;;;1846260;76;26319;-53
2022/11/09 09:27:04;;;;;;;0.95;0.60;;;;;;;;;;1846169;76;26261;-53
2022/11/09 09:29:31;;;;;;;0.80;0.80;;;;;;;;;;1848817;76;26299;-55
2022/11/09 09:31:59;;;;;;;0.80;0.80;;;;;;;;;;1846534;76;26295;-56
2022/11/09 09:34:26;;;;;;;0.70;0.70;;;;;;;;;;1848126;76;26261;-56
2022/11/09 09:36:53;;;;;;;0.65;0.65;;;;;;;;;;1843811;76;26331;-56
2022/11/09 09:39:20;;;;;;;0.70;0.70;;;;;;;;;;1847489;76;26372;-57
2022/11/09 09:41:49;;;;;;;0.70;0.70;;;;;;;;;;1848230;76;26233;-56
2022/11/09 09:44:21;;;;;;;0.60;0.60;;;;;;;;;;1846933;76;26304;-56
2022/11/09 09:47:02;;;;;;;1.57;0.70;;;;;;;;;;1844149;76;26260;-59
2022/11/09 09:49:31;;;;;;;0.70;0.70;;;;;;;;;;1847702;76;26795;-52
2022/11/09 09:51:59;;;;;;;0.60;0.60;;;;;;;;;;1846508;77;26252;-58
2022/11/09 09:54:28;;;;;;;0.70;0.70;;;;;;;;;;1844531;76;26361;-58
2022/11/09 09:56:57;;;;;;;0.60;0.60;;;;;;;;;;1846789;76;26256;-59
2022/11/09 09:59:32;;;;;;;0.62;0.62;;;;;;;;;;1845810;76;26252;-59
2022/11/09 10:01:59;;;;;;;0.65;0.65;;;;;;;;;;1847363;76;27002;-58
2022/11/09 10:04:31;;;;;;;0.70;0.70;;;;;;;;;;1846591;77;26260;-56
2022/11/09 10:06:59;;;;;;;0.70;0.70;;;;;;;;;;1846349;76;26875;-58
2022/11/09 10:09:44;;;;;;;0.60;0.60;;;;;;;;;;1845899;76;26742;-58
2022/11/09 10:12:13;;;;;;;0.80;0.80;;;;;;;;;;1846505;76;26993;-58
2022/11/09 10:14:42;;;;;;;0.70;0.70;;;;;;;;;;1845020;77;26740;-58
2022/11/09 10:17:19;;;;;;;0.70;0.70;;;;;;;;;;1776867;77;26856;-61
2022/11/09 10:19:48;;;;;;;0.60;0.60;;;;;;;;;;1845586;76;26257;-58
2022/11/09 10:22:17;;;;;;;0.80;0.80;;;;;;;;;;1840786;76;26363;-59
2022/11/09 10:24:53;;;;;;;0.70;0.70;;;;;;;;;;1846813;77;26241;-61
2022/11/09 10:27:28;;;;;;;0.72;0.72;;;;;;;;;;1848324;76;26303;-55
2022/11/09 10:29:55;;;;;;;0.60;0.60;;;;;;;;;;1847631;76;27092;-56
2022/11/09 10:32:24;;;;;;;0.65;0.65;;;;;;;;;;1849813;76;26252;-55
2022/11/09 10:34:52;;;;;;;2.70;0.72;;;;;;;;;;1848450;76;26267;-59
2022/11/09 10:37:24;;;;;;;0.70;0.70;;;;;;;;;;1848254;77;26306;-54
2022/11/09 10:39:53;;;;;;;0.60;0.60;;;;;;;;;;1844363;76;26271;-57
2022/11/09 10:42:20;;;;;;;1.67;0.60;;;;;;;;;;1847344;76;26304;-55
2022/11/09 10:44:48;;;;;;;0.70;0.70;;;;;;;;;;1846512;76;26277;-57
2022/11/09 10:47:16;;;;;;;0.60;0.60;;;;;;;;;;1847203;76;26322;-56
2022/11/09 10:49:44;;;;;;;0.75;0.62;;;;;;;;;;1846661;76;26245;-59
2022/11/09 10:52:31;;;;;;;0.60;0.60;;;;;;;;;;1846755;76;26198;-54
2022/11/09 10:55:18;;;;;;;0.80;0.80;;;;;;;;;;1847109;76;26276;-58
2022/11/09 10:57:56;;;;;;;0.60;0.60;;;;;;;;;;1846005;76;26379;-53
2022/11/09 11:00:24;;;;;;;0.68;0.68;;;;;;;;;;1847455;76;27497;-51
2022/11/09 11:02:52;;;;;;;0.88;0.72;;;;;;;;;;1846957;76;26304;-55
2022/11/09 11:05:21;;;;;;;1.70;0.90;;;;;;;;;;1848187;76;26260;-57
2022/11/09 11:07:48;;;;;;;1.32;0.90;;;;;;;;;;1845600;77;26304;-56
2022/11/09 11:10:17;;;;;;;3.75;1.07;;;;;;;;;;1848550;76;26307;-59
2022/11/09 11:13:01;;;;;;;0.70;0.70;;;;;;;;;;1846015;76;26253;-54
2022/11/09 11:15:30;;;;;;;0.80;0.80;;;;;;;;;;1847209;76;26280;-58
2022/11/09 11:18:01;;;;;;;0.85;0.85;;;;;;;;;;1848219;76;27019;-55
2022/11/09 11:20:33;;;;;;;0.80;0.80;;;;;;;;;;1843995;76;26414;-55
2022/11/09 11:23:18;;;;;;;0.80;0.80;;;;;;;;;;1846864;76;26259;-57
2022/11/09 11:25:56;;;;;;;0.98;0.80;;;;;;;;;;1849034;75;26397;-58
2022/11/09 11:28:31;;;;;;;1.30;0.90;;;;;;;;;;1852490;76;26696;-57
2022/11/09 11:30:59;;;;;;;0.80;0.80;;;;;;;;;;1852012;77;26311;-60
2022/11/09 11:33:30;;;;;;;1.27;0.90;;;;;;;;;;1852047;76;26291;-55
2022/11/09 11:36:17;;;;;;;1.27;0.78;;;;;;;;;;1852153;76;26969;-55
2022/11/09 11:38:52;;;;;;;1.95;0.78;;;;;;;;;;1852985;76;26397;-55
2022/11/09 11:41:20;;;;;;;0.80;0.80;;;;;;;;;;1835803;76;26261;-56
2022/11/09 11:43:49;;;;;;;0.80;0.80;;;;;;;;;;1851334;77;26408;-58
2022/11/09 11:46:35;;;;;;;3.37;1.17;;;;;;;;;;1853085;76;26202;-58
2022/11/09 11:49:09;;;;;;;0.80;0.80;;;;;;;;;;1853272;76;27445;-55
2022/11/09 11:51:38;;;;;;;0.60;0.60;;;;;;;;;;1802758;77;26352;-58
2022/11/09 11:54:07;;;;;;;0.95;0.88;;;;;;;;;;1852247;76;27401;-59
2022/11/09 11:56:36;;;;;;;0.80;0.80;;;;;;;;;;1853097;76;26811;-58
2022/11/09 11:59:07;;;;;;;0.78;0.60;;;;;;;;;;1852151;76;26803;-57
2022/11/09 12:01:36;;;;;;;0.78;0.78;;;;;;;;;;1851961;76;26181;-58
2022/11/09 12:04:05;;;;;;;1.30;0.80;;;;;;;;;;1851410;76;26302;-58
2022/11/09 12:06:37;;;;;;;0.95;0.80;;;;;;;;;;1836086;77;26728;-59
2022/11/09 12:09:21;;;;;;;0.80;0.80;;;;;;;;;;1852431;76;26305;-59
2022/11/09 12:11:50;;;;;;;0.68;0.68;;;;;;;;;;1852406;76;26264;-58
2022/11/09 12:14:19;;;;;;;0.80;0.80;;;;;;;;;;1853996;76;26565;-58
2022/11/09 12:16:50;;;;;;;1.45;0.70;;;;;;;;;;1851599;76;26721;-58
2022/11/09 12:19:29;;;;;;;0.60;0.60;;;;;;;;;;1852610;76;26264;-59
2022/11/09 12:22:10;;;;;;;0.68;0.68;;;;;;;;;;1851599;76;26255;-58
2022/11/09 12:24:39;;;;;;;0.60;0.60;;;;;;;;;;1852309;76;26244;-59
2022/11/09 12:27:24;;;;;;;0.65;0.65;;;;;;;;;;1851592;76;26260;-59
2022/11/09 12:29:56;;;;;;;0.70;0.70;;;;;;;;;;1852590;76;26244;-59
2022/11/09 12:32:31;;;;;;;0.82;0.82;;;;;;;;;;1853395;76;27207;-59
2022/11/09 12:35:16;;;;;;;0.70;0.70;;;;;;;;;;1834379;77;26310;-59
2022/11/09 12:37:51;;;;;;;0.60;0.60;;;;;;;;;;1852981;76;26295;-58
2022/11/09 12:40:20;;;;;;;0.65;0.65;;;;;;;;;;1834328;77;26666;-59
2022/11/09 12:42:55;;;;;;;0.50;0.50;;;;;;;;;;1850781;77;27548;-56
2022/11/09 12:45:31;;;;;;;1.07;1.07;;;;;;;;;;1852909;76;26294;-54
2022/11/09 12:48:00;;;;;;;0.60;0.60;;;;;;;;;;1852569;76;26476;-57
2022/11/09 12:50:28;;;;;;;0.62;0.62;;;;;;;;;;1851668;76;26317;-55
2022/11/09 12:52:56;;;;;;;0.80;0.80;;;;;;;;;;1851542;76;26395;-55
2022/11/09 12:55:37;;;;;;;0.65;0.65;;;;;;;;;;1851542;76;26657;-58
2022/11/09 12:58:04;;;;;;;0.60;0.60;;;;;;;;;;1851680;76;26264;-56
2022/11/09 13:00:36;;;;;;;0.62;0.62;;;;;;;;;;1852986;76;26564;-54
2022/11/09 13:03:05;;;;;;;0.60;0.60;;;;;;;;;;1851494;76;27426;-54
2022/11/09 13:05:34;;;;;;;0.60;0.60;;;;;;;;;;1852189;76;27808;-58
2022/11/09 13:08:02;;;;;;;0.75;0.75;;;;;;;;;;1851602;76;26901;-53
2022/11/09 13:10:33;;;;;;;0.60;0.60;;;;;;;;;;1852291;76;26306;-54
2022/11/09 13:13:05;;;;;;;0.80;0.80;;;;;;;;;;1851920;77;26834;-54
2022/11/09 13:15:34;;;;;;;0.70;0.70;;;;;;;;;;1843760;76;26374;-59
2022/11/09 13:18:03;;;;;;;0.70;0.70;;;;;;;;;;1852127;76;26628;-52
2022/11/09 13:20:35;;;;;;;0.80;0.80;;;;;;;;;;1852982;76;26754;-50
2022/11/09 13:23:04;;;;;;;0.80;0.80;;;;;;;;;;1852857;76;26363;-52
2022/11/09 13:25:35;;;;;;;0.80;0.80;;;;;;;;;;1851516;77;26723;-51
2022/11/09 13:28:03;;;;;;;0.60;0.60;;;;;;;;;;1849627;76;26264;-53
2022/11/09 13:30:41;;;;;;;0.80;0.80;;;;;;;;;;1844767;76;26362;-52
2022/11/09 13:33:10;;;;;;;0.70;0.70;;;;;;;;;;1847101;76;26316;-57
2022/11/09 13:35:42;;;;;;;0.70;0.70;;;;;;;;;;1845917;76;26283;-52
2022/11/09 13:38:19;;;;;;;0.80;0.80;;;;;;;;;;1845261;76;26256;-58
2022/11/09 13:40:50;;;;;;;0.70;0.70;;;;;;;;;;1843114;76;26347;-59
2022/11/09 13:43:19;;;;;;;0.72;0.72;;;;;;;;;;1847283;76;26244;-59
2022/11/09 13:45:47;;;;;;;0.80;0.80;;;;;;;;;;1845084;76;26333;-57
2022/11/09 13:48:31;;;;;;;0.75;0.75;;;;;;;;;;1845516;76;26779;-51
2022/11/09 13:51:00;;;;;;;0.85;0.80;;;;;;;;;;1847927;76;26791;-54
2022/11/09 13:53:32;;;;;;;0.80;0.80;;;;;;;;;;1846760;76;26351;-53
2022/11/09 13:56:00;;;;;;;0.80;0.80;;;;;;;;;;1844704;76;26308;-58
2022/11/09 13:58:29;;;;;;;0.70;0.70;;;;;;;;;;1843173;76;26343;-53
2022/11/09 14:00:56;;;;;;;0.80;0.80;;;;;;;;;;1845762;76;26233;-58
2022/11/09 14:03:25;;;;;;;0.70;0.70;;;;;;;;;;1847741;76;26259;-58
2022/11/09 14:05:57;;;;;;;0.70;0.70;;;;;;;;;;1845708;76;26361;-58
2022/11/09 14:08:28;;;;;;;0.80;0.80;;;;;;;;;;1844129;76;27180;-56
2022/11/09 14:10:57;;;;;;;0.70;0.70;;;;;;;;;;1846733;76;26741;-52
2022/11/09 14:13:38;;;;;;;2.37;0.75;;;;;;;;;;1845721;76;27705;-61
2022/11/09 14:16:26;;;;;;;0.60;0.60;;;;;;;;;;1845422;76;26238;-65
2022/11/09 14:19:10;;;;;;;0.80;0.80;;;;;;;;;;1846824;76;26292;-59
2022/11/09 14:21:39;;;;;;;4.87;1.17;;;;;;;;;;1844849;77;26287;-55
2022/11/09 14:24:17;;;;;;;4.75;1.00;;;;;;;;;;1846204;76;26242;-59
2022/11/09 14:27:02;;;;;;;12.50;1.20;;;;;;;;;;1846348;76;26369;-58
2022/11/09 14:29:35;;;;;;;6.45;1.70;;;;;;;;;;1845157;76;26242;-57
2022/11/09 14:32:00;;;;;;;8.88;1.92;;;;;;;;;;1848956;76;26305;-57
2022/11/09 14:34:28;;;;;;;9.50;1.65;;;;;;;;;;1847176;76;27220;-57
2022/11/09 14:36:56;;;;;;;12.30;1.55;;;;;;;;;;1843988;76;27442;-51
2022/11/09 14:39:26;;;;;;;14.43;1.80;;;;;;;;;;1845182;76;26376;-56
2022/11/09 14:41:54;;;;;;;19.15;1.90;;;;;;;;;;1848457;76;26273;-56
2022/11/09 14:44:31;;;;;;;12.03;2.15;;;;;;;;;;1845218;76;26754;-55
2022/11/09 14:46:57;;;;;;;5.10;1.10;;;;;;;;;;1846545;76;26308;-53
2022/11/09 14:49:26;;;;;;;9.23;1.37;;;;;;;;;;1848498;76;27080;-54
2022/11/09 14:51:53;;;;;;;7.55;1.52;;;;;;;;;;1846515;76;26232;-52
2022/11/09 14:54:22;;;;;;;8.03;1.42;;;;;;;;;;1844526;76;26743;-57
2022/11/09 14:56:49;;;;;;;4.40;1.10;;;;;;;;;;1845945;77;26779;-53
2022/11/09 14:59:18;;;;;;;7.45;1.15;;;;;;;;;;1846619;76;26328;-54